Time;durP1;ratioP1;P1;durP2;ratioP2;P2;SDS_P1;SDS_P2;PMS_P1;PMS_P2;Temp;Humidity;BMP_temperature;BMP_pressure;BME280_temperature;BME280_humidity;BME280_pressure;Samples;Min_cycle;Max_cycle;Signal;HPM_P1;HPM_P2
2021/10/17 00:00:39;;;;;;;17.25;3.35;;;;;15.30;101115.00;;;;5068026;28;20310;-73
2021/10/17 00:03:09;;;;;;;23.48;3.75;;;;;15.30;101113.00;;;;5068074;28;20042;-73
2021/10/17 00:05:38;;;;;;;27.58;3.95;;;;;15.40;101133.00;;;;5067382;28;20049;-74
2021/10/17 00:08:09;;;;;;;20.92;3.25;;;;;15.30;101129.00;;;;5067549;28;20040;-73
2021/10/17 00:10:38;;;;;;;25.20;3.77;;;;;15.30;101123.00;;;;5068393;28;20519;-73
2021/10/17 00:13:09;;;;;;;31.38;3.38;;;;;15.30;101122.00;;;;5067536;28;20057;-74
2021/10/17 00:15:40;;;;;;;25.73;3.92;;;;;15.20;101135.00;;;;5067798;28;20045;-75
2021/10/17 00:18:10;;;;;;;16.17;2.63;;;;;15.30;101137.00;;;;5067337;28;20500;-74
2021/10/17 00:20:40;;;;;;;28.08;4.07;;;;;15.20;101139.00;;;;5067856;28;20051;-74
2021/10/17 00:23:11;;;;;;;22.55;4.05;;;;;15.20;101130.00;;;;5068125;28;20456;-76
2021/10/17 00:25:40;;;;;;;26.45;3.67;;;;;15.20;101149.00;;;;5068422;28;20044;-73
2021/10/17 00:28:10;;;;;;;20.05;3.72;;;;;15.20;101154.00;;;;5068102;28;20388;-74
2021/10/17 00:30:44;;;;;;;34.67;5.43;;;;;15.20;101155.00;;;;5083180;28;20052;-76
2021/10/17 00:33:14;;;;;;;728.38;322.77;;;;;15.20;101132.00;;;;5066622;28;20143;-74
2021/10/17 00:35:43;;;;;;;29.38;3.70;;;;;15.20;101127.00;;;;5068005;28;20586;-74
2021/10/17 00:38:13;;;;;;;30.58;3.80;;;;;15.20;101141.00;;;;5066561;28;20079;-74
2021/10/17 00:40:43;;;;;;;19.17;3.40;;;;;15.10;101149.00;;;;5067601;28;20044;-76
2021/10/17 00:43:13;;;;;;;26.23;4.03;;;;;15.20;101156.00;;;;5066068;28;20106;-73
2021/10/17 00:45:43;;;;;;;19.92;3.33;;;;;15.10;101136.00;;;;5067545;28;20176;-75
2021/10/17 00:48:12;;;;;;;26.83;5.00;;;;;15.10;101141.00;;;;5066076;28;20071;-74
2021/10/17 00:50:42;;;;;;;17.02;4.30;;;;;15.00;101147.00;;;;5066244;28;20072;-73
2021/10/17 00:53:11;;;;;;;18.17;3.75;;;;;14.90;101137.00;;;;5083228;28;20044;-73
2021/10/17 00:55:40;;;;;;;18.70;3.00;;;;;14.90;101115.00;;;;5066991;28;20062;-73
2021/10/17 00:58:21;;;;;;;25.25;4.30;;;;;14.90;101145.00;;;;5065956;28;20037;-73
2021/10/17 01:00:51;;;;;;;25.05;3.00;;;;;14.90;101133.00;;;;5090523;28;20142;-74
2021/10/17 01:03:21;;;;;;;24.33;3.28;;;;;14.80;101136.00;;;;5097300;28;20574;-72
2021/10/17 01:05:52;;;;;;;20.98;3.60;;;;;14.80;101144.00;;;;5095620;28;20415;-75
2021/10/17 01:08:23;;;;;;;21.70;3.45;;;;;14.80;101146.00;;;;5097187;28;20043;-74
2021/10/17 01:10:57;;;;;;;24.95;3.33;;;;;14.80;101142.00;;;;5099001;28;20040;-74
2021/10/17 01:13:27;;;;;;;22.95;3.35;;;;;14.80;101150.00;;;;5096207;28;20040;-73
2021/10/17 01:15:57;;;;;;;20.77;3.40;;;;;14.80;101150.00;;;;5098877;28;20085;-74
2021/10/17 01:18:38;;;;;;;;;;;;;14.80;101151.00;;;;5107157;28;20898;-72
2021/10/17 01:21:13;;;;;;;21.40;3.30;;;;;14.90;101155.00;;;;5106355;28;19923;-75
2021/10/17 01:23:44;;;;;;;23.73;3.60;;;;;14.80;101145.00;;;;5106257;28;20047;-75
2021/10/17 01:26:13;;;;;;;29.75;4.03;;;;;14.80;101134.00;;;;5105886;28;20043;-73
2021/10/17 01:28:42;;;;;;;17.58;3.58;;;;;14.80;101148.00;;;;5106048;28;20047;-74
2021/10/17 01:31:12;;;;;;;30.02;4.05;;;;;14.80;101139.00;;;;5108185;28;20035;-74
2021/10/17 01:33:41;;;;;;;28.25;3.08;;;;;14.80;101154.00;;;;5106369;28;20097;-72
2021/10/17 01:36:11;;;;;;;22.63;3.55;;;;;14.90;101151.00;;;;5104493;28;20039;-74
2021/10/17 01:38:40;;;;;;;25.27;3.40;;;;;14.90;101144.00;;;;5105113;28;20050;-74
2021/10/17 01:41:10;;;;;;;24.58;4.22;;;;;14.80;101154.00;;;;5106864;28;20085;-72
2021/10/17 01:43:40;;;;;;;21.80;3.42;;;;;14.80;101144.00;;;;5106117;28;20184;-74
2021/10/17 01:46:11;;;;;;;25.27;3.72;;;;;14.80;101141.00;;;;5106594;28;20051;-73
2021/10/17 01:48:43;;;;;;;23.50;3.28;;;;;14.80;101161.00;;;;5106284;28;20538;-74
2021/10/17 01:51:13;;;;;;;20.08;3.00;;;;;14.80;101155.00;;;;5105760;28;20051;-73
2021/10/17 01:53:43;;;;;;;24.98;3.38;;;;;14.80;101147.00;;;;5105923;28;20055;-74
2021/10/17 01:56:14;;;;;;;20.90;3.65;;;;;14.80;101141.00;;;;5104931;28;20529;-75
2021/10/17 01:58:45;;;;;;;24.65;3.83;;;;;14.80;101144.00;;;;5105921;28;20093;-74
2021/10/17 02:01:15;;;;;;;22.73;3.40;;;;;14.70;101144.00;;;;5105439;28;20047;-74
2021/10/17 02:03:45;;;;;;;22.55;3.00;;;;;14.70;101136.00;;;;5105828;28;20071;-73
2021/10/17 02:06:14;;;;;;;48.20;16.83;;;;;14.70;101149.00;;;;5105576;28;20147;-72
2021/10/17 02:08:46;;;;;;;31.35;3.75;;;;;14.70;101148.00;;;;5106355;28;20441;-74
2021/10/17 02:11:15;;;;;;;26.83;3.72;;;;;14.70;101149.00;;;;5107360;28;20096;-73
2021/10/17 02:13:45;;;;;;;21.15;3.67;;;;;14.70;101131.00;;;;5110215;28;20036;-73
2021/10/17 02:16:16;;;;;;;24.93;3.03;;;;;14.70;101157.00;;;;5110184;28;20474;-73
2021/10/17 02:18:45;;;;;;;29.65;3.63;;;;;14.70;101138.00;;;;5109774;28;20062;-74
2021/10/17 02:21:16;;;;;;;26.33;3.53;;;;;14.70;101140.00;;;;5109795;28;20055;-74
2021/10/17 02:23:48;;;;;;;18.08;2.80;;;;;14.70;101156.00;;;;5109783;28;20583;-73
2021/10/17 02:26:18;;;;;;;30.10;3.57;;;;;14.70;101146.00;;;;5109730;28;20861;-73
2021/10/17 02:29:06;;;;;;;21.55;3.20;;;;;14.60;101156.00;;;;5111273;28;20136;-75
2021/10/17 02:31:59;;;;;;;21.23;3.30;;;;;14.60;101143.00;;;;5110547;28;20071;-74
2021/10/17 02:34:29;;;;;;;14.80;2.50;;;;;14.60;101136.00;;;;5110082;28;20425;-75
2021/10/17 02:36:59;;;;;;;22.30;3.78;;;;;14.60;101120.00;;;;5109904;28;20578;-74
2021/10/17 02:39:29;;;;;;;;;;;;;14.60;101138.00;;;;5110109;28;20134;-74
2021/10/17 02:41:59;;;;;;;26.60;4.00;;;;;14.60;101136.00;;;;5108855;28;19969;-75
2021/10/17 02:44:30;;;;;;;24.83;3.15;;;;;14.50;101140.00;;;;5110434;28;20478;-75
2021/10/17 02:47:00;;;;;;;19.08;2.65;;;;;14.40;101128.00;;;;5110877;28;20409;-74
2021/10/17 02:49:30;;;;;;;19.60;3.50;;;;;14.50;101125.00;;;;5109343;28;20054;-75
2021/10/17 02:52:01;;;;;;;20.77;3.17;;;;;14.50;101108.00;;;;5109382;28;20047;-75
2021/10/17 02:54:30;;;;;;;14.57;2.63;;;;;14.40;101118.00;;;;5110605;28;20047;-75
2021/10/17 02:57:01;;;;;;;23.67;3.42;;;;;14.40;101127.00;;;;5109114;28;20064;-75
2021/10/17 02:59:30;;;;;;;22.73;3.25;;;;;14.50;101120.00;;;;5110766;28;20043;-73
2021/10/17 03:02:00;;;;;;;28.02;3.45;;;;;14.40;101105.00;;;;5109213;28;20550;-75
2021/10/17 03:04:29;;;;;;;24.75;3.38;;;;;14.40;101102.00;;;;5109439;28;20426;-75
2021/10/17 03:06:59;;;;;;;18.92;3.25;;;;;14.40;101110.00;;;;5108970;28;20096;-73
2021/10/17 03:09:30;;;;;;;18.58;2.88;;;;;14.30;101084.00;;;;5110663;28;20088;-75
2021/10/17 03:12:01;;;;;;;;;;;;;14.30;101107.00;;;;5109614;28;20048;-71
2021/10/17 03:14:30;;;;;;;20.00;2.90;;;;;14.30;101090.00;;;;5108697;28;19923;-75
2021/10/17 03:17:00;;;;;;;17.63;3.25;;;;;14.30;101104.00;;;;5108705;28;20071;-74
2021/10/17 03:19:29;;;;;;;22.65;3.15;;;;;14.20;101084.00;;;;5108426;28;20483;-71
2021/10/17 03:21:59;;;;;;;18.38;2.92;;;;;14.20;101107.00;;;;5108537;28;20060;-76
2021/10/17 03:24:30;;;;;;;22.42;3.40;;;;;14.20;101089.00;;;;5092129;28;20494;-75
2021/10/17 03:27:00;;;;;;;28.02;3.28;;;;;14.20;101095.00;;;;5110190;28;20502;-73
2021/10/17 03:29:29;;;;;;;17.45;2.85;;;;;14.30;101086.00;;;;5108953;28;20071;-74
2021/10/17 03:32:02;;;;;;;20.60;3.15;;;;;14.30;101082.00;;;;5108546;28;20067;-74
2021/10/17 03:34:36;;;;;;;28.27;3.80;;;;;14.30;101064.00;;;;5108669;28;20051;-74
2021/10/17 03:37:06;;;;;;;21.30;2.45;;;;;14.20;101062.00;;;;5108528;28;20146;-75
2021/10/17 03:39:37;;;;;;;23.98;3.35;;;;;14.20;101039.00;;;;5108209;28;20054;-76
2021/10/17 03:42:07;;;;;;;23.67;4.22;;;;;14.20;101037.00;;;;5109758;28;20055;-73
2021/10/17 03:44:39;;;;;;;22.33;3.25;;;;;14.10;101018.00;;;;5108346;28;20079;-74
2021/10/17 03:47:09;;;;;;;22.58;3.80;;;;;14.10;101021.00;;;;5108553;28;20081;-75
2021/10/17 03:49:40;;;;;;;21.20;3.25;;;;;14.00;101020.00;;;;5109600;28;20027;-73
2021/10/17 03:52:10;;;;;;;17.92;2.90;;;;;13.90;101008.00;;;;5110016;28;20473;-74
2021/10/17 03:54:41;;;;;;;27.45;2.97;;;;;13.80;101015.00;;;;5108251;28;20048;-75
2021/10/17 03:57:12;;;;;;;23.30;3.17;;;;;13.90;101001.00;;;;5108505;28;20059;-73
2021/10/17 03:59:42;;;;;;;17.35;3.15;;;;;13.90;100980.00;;;;5108359;28;20036;-74
2021/10/17 04:02:11;;;;;;;27.65;3.20;;;;;13.90;100995.00;;;;5109156;28;20047;-73
2021/10/17 04:04:41;;;;;;;24.15;3.63;;;;;13.90;100973.00;;;;5107555;28;20060;-74
2021/10/17 04:07:11;;;;;;;20.83;3.10;;;;;13.80;100962.00;;;;5107044;28;20055;-73
2021/10/17 04:09:41;;;;;;;17.48;3.28;;;;;13.80;100981.00;;;;5107992;28;20105;-74
2021/10/17 04:12:10;;;;;;;21.52;3.30;;;;;13.80;100972.00;;;;5107981;28;20448;-72
2021/10/17 04:14:53;;;;;;;12.77;2.53;;;;;13.90;100964.00;;;;5107260;28;20506;-75
2021/10/17 04:17:23;;;;;;;21.23;3.08;;;;;13.90;100963.00;;;;5109208;28;20042;-72
2021/10/17 04:19:53;;;;;;;26.23;3.25;;;;;13.90;100960.00;;;;5107438;28;20054;-73
2021/10/17 04:22:23;;;;;;;16.23;2.90;;;;;13.90;100974.00;;;;5107840;28;20509;-75
2021/10/17 04:24:53;;;;;;;15.90;2.83;;;;;14.00;100976.00;;;;5107836;28;20144;-74
2021/10/17 04:27:23;;;;;;;31.48;3.50;;;;;14.10;100985.00;;;;5107541;28;20052;-74
2021/10/17 04:29:55;;;;;;;26.55;3.65;;;;;14.10;100980.00;;;;5107089;28;20104;-74
2021/10/17 04:32:25;;;;;;;31.52;3.47;;;;;14.10;100974.00;;;;5106750;28;20052;-74
2021/10/17 04:34:54;;;;;;;18.58;3.05;;;;;14.10;100981.00;;;;5108081;28;20048;-74
2021/10/17 04:37:24;;;;;;;21.27;3.30;;;;;14.10;100989.00;;;;5106695;28;20118;-75
2021/10/17 04:39:54;;;;;;;28.10;3.08;;;;;14.00;101010.00;;;;5109007;28;20418;-73
2021/10/17 04:42:24;;;;;;;18.77;2.75;;;;;14.00;101001.00;;;;5109189;28;20043;-75
2021/10/17 04:44:54;;;;;;;18.45;3.00;;;;;14.00;101006.00;;;;5106925;28;20114;-74
2021/10/17 04:47:23;;;;;;;19.15;3.05;;;;;13.90;101007.00;;;;5109254;28;20494;-76
2021/10/17 04:49:53;;;;;;;18.10;3.00;;;;;13.90;100988.00;;;;5106972;28;20051;-74
2021/10/17 04:52:22;;;;;;;18.92;2.65;;;;;13.90;101021.00;;;;5107983;28;20440;-75
2021/10/17 04:54:52;;;;;;;20.85;3.10;;;;;13.90;101031.00;;;;5107990;28;20043;-74
2021/10/17 04:57:24;;;;;;;18.40;2.60;;;;;14.00;101023.00;;;;5089895;28;20108;-73
2021/10/17 04:59:54;;;;;;;31.17;2.70;;;;;14.00;101034.00;;;;5106675;28;20052;-74
2021/10/17 05:02:24;;;;;;;18.45;2.70;;;;;14.10;101010.00;;;;5106351;28;20309;-72
2021/10/17 05:04:54;;;;;;;19.38;2.90;;;;;14.10;101024.00;;;;5106876;28;20533;-73
2021/10/17 05:07:25;;;;;;;25.03;3.30;;;;;14.20;101028.00;;;;5106648;28;20055;-73
2021/10/17 05:09:54;;;;;;;21.88;3.78;;;;;14.20;101004.00;;;;5107017;28;20504;-73
2021/10/17 05:12:24;;;;;;;26.92;3.30;;;;;14.10;101008.00;;;;5107062;28;20047;-74
2021/10/17 05:14:54;;;;;;;18.88;3.22;;;;;14.10;100985.00;;;;5106267;28;20085;-74
2021/10/17 05:17:25;;;;;;;22.30;2.60;;;;;14.10;100999.00;;;;5106476;28;20089;-72
2021/10/17 05:19:55;;;;;;;22.70;2.70;;;;;14.10;101004.00;;;;5106228;28;20039;-73
2021/10/17 05:22:26;;;;;;;22.77;3.08;;;;;14.10;100974.00;;;;5106223;28;20054;-73
2021/10/17 05:24:55;;;;;;;21.25;3.28;;;;;14.10;100983.00;;;;5106504;28;20047;-73
2021/10/17 05:27:24;;;;;;;24.52;3.45;;;;;14.10;100980.00;;;;5106318;28;20047;-74
2021/10/17 05:29:54;;;;;;;20.33;2.63;;;;;14.10;101002.00;;;;5106327;28;20142;-74
2021/10/17 05:32:25;;;;;;;16.48;2.97;;;;;14.00;100987.00;;;;5105905;28;20051;-72
2021/10/17 05:34:55;;;;;;;18.13;2.67;;;;;14.00;100997.00;;;;5106359;28;20189;-74
2021/10/17 05:37:24;;;;;;;22.48;2.95;;;;;14.00;100981.00;;;;5106348;28;20046;-73
2021/10/17 05:39:54;;;;;;;19.98;3.05;;;;;14.00;100983.00;;;;5106252;28;20043;-74
2021/10/17 05:42:23;;;;;;;24.38;3.78;;;;;14.00;100975.00;;;;5105812;28;20043;-73
2021/10/17 05:44:53;;;;;;;19.00;2.70;;;;;14.00;100998.00;;;;5107333;28;20051;-72
2021/10/17 05:47:24;;;;;;;21.27;3.53;;;;;14.00;100986.00;;;;5106545;27;20079;-73
2021/10/17 05:49:54;;;;;;;17.20;2.92;;;;;14.00;101004.00;;;;5105603;28;20044;-73
2021/10/17 05:52:24;;;;;;;15.32;2.25;;;;;14.00;101000.00;;;;5106263;28;20040;-74
2021/10/17 05:54:54;;;;;;;16.05;2.47;;;;;14.00;101010.00;;;;5107123;28;20530;-74
2021/10/17 05:57:23;;;;;;;17.88;3.22;;;;;13.90;101008.00;;;;5105739;28;20058;-74
2021/10/17 05:59:52;;;;;;;20.38;2.90;;;;;13.90;100998.00;;;;5105319;28;20058;-73
2021/10/17 06:02:22;;;;;;;17.38;2.47;;;;;13.90;100998.00;;;;5106214;28;20097;-72
2021/10/17 06:04:53;;;;;;;16.57;2.50;;;;;13.90;101021.00;;;;5106197;28;20055;-73
2021/10/17 06:07:25;;;;;;;22.65;2.88;;;;;13.90;100999.00;;;;5105942;28;20105;-73
2021/10/17 06:09:57;;;;;;;21.15;2.88;;;;;13.90;101033.00;;;;5089226;28;20048;-73
2021/10/17 06:12:32;;;;;;;13.32;2.30;;;;;13.90;101024.00;;;;5105296;28;20513;-74
2021/10/17 06:15:04;;;;;;;18.85;2.95;;;;;13.90;101024.00;;;;5105876;28;20100;-74
2021/10/17 06:17:34;;;;;;;15.63;2.00;;;;;13.90;101029.00;;;;5107352;28;20043;-73
2021/10/17 06:20:05;;;;;;;19.98;2.90;;;;;13.90;101028.00;;;;5106033;28;20050;-73
2021/10/17 06:22:40;;;;;;;18.95;2.45;;;;;13.90;101039.00;;;;5105503;28;20055;-72
2021/10/17 06:25:10;;;;;;;22.92;2.47;;;;;13.90;101044.00;;;;5105520;28;20039;-73
2021/10/17 06:27:39;;;;;;;16.83;2.40;;;;;13.90;101022.00;;;;5105783;28;20744;-73
2021/10/17 06:30:10;;;;;;;13.88;2.10;;;;;13.90;101049.00;;;;5105588;28;20498;-73
2021/10/17 06:32:40;;;;;;;13.35;2.28;;;;;13.90;101038.00;;;;5105171;28;20411;-72
2021/10/17 06:35:14;;;;;;;14.05;2.97;;;;;13.90;101057.00;;;;5105495;28;20058;-72
2021/10/17 06:37:44;;;;;;;20.23;2.58;;;;;13.90;101060.00;;;;5105409;28;20083;-74
2021/10/17 06:40:14;;;;;;;13.98;2.20;;;;;13.90;101078.00;;;;5105377;28;20522;-72
2021/10/17 06:42:44;;;;;;;14.02;2.28;;;;;13.90;101074.00;;;;5105576;28;20078;-73
2021/10/17 06:45:37;;;;;;;13.40;2.03;;;;;13.90;101077.00;;;;5105239;28;20135;-73
2021/10/17 06:48:07;;;;;;;14.88;2.28;;;;;13.90;101088.00;;;;5089225;28;20094;-73
2021/10/17 06:50:36;;;;;;;11.95;2.00;;;;;13.90;101099.00;;;;5105280;28;20051;-74
2021/10/17 06:53:07;;;;;;;;;;;;;13.90;101088.00;;;;5106397;28;20048;-73
2021/10/17 06:55:37;;;;;;;16.15;2.60;;;;;13.90;101096.00;;;;5107382;28;19942;-74
2021/10/17 06:58:07;;;;;;;11.98;1.85;;;;;13.90;101085.00;;;;5105208;28;20044;-73
2021/10/17 07:00:38;;;;;;;12.82;1.88;;;;;13.90;101108.00;;;;5108989;28;20044;-73
2021/10/17 07:03:08;;;;;;;10.18;2.13;;;;;13.80;101113.00;;;;5108991;28;20137;-73
2021/10/17 07:05:58;;;;;;;11.77;1.80;;;;;13.90;101095.00;;;;5110623;28;20047;-75
2021/10/17 07:08:29;;;;;;;15.32;2.25;;;;;13.90;101122.00;;;;5108560;28;20056;-72
2021/10/17 07:11:00;;;;;;;12.18;1.92;;;;;13.80;101120.00;;;;5108669;28;20054;-76
2021/10/17 07:14:08;;;;;;;13.82;2.17;;;;;13.80;101125.00;;;;5066595;28;20048;-75
2021/10/17 07:16:54;;;;;;;16.30;2.33;;;;;13.80;101125.00;;;;5049952;28;20044;-74
2021/10/17 07:19:25;;;;;;;;;;;;;13.80;101133.00;;;;5086827;28;20048;-73
2021/10/17 07:21:54;;;;;;;11.93;1.60;;;;;13.70;101132.00;;;;5109319;28;19926;-74
2021/10/17 07:24:24;;;;;;;17.50;2.20;;;;;13.60;101130.00;;;;5108356;28;20048;-74
2021/10/17 07:26:54;;;;;;;11.55;1.88;;;;;13.70;101129.00;;;;5110001;28;20054;-74
2021/10/17 07:29:23;;;;;;;19.13;2.70;;;;;13.80;101140.00;;;;5108425;28;20138;-72
2021/10/17 07:31:52;;;;;;;15.43;2.03;;;;;13.70;101145.00;;;;5110199;27;20089;-74
2021/10/17 07:34:22;;;;;;;17.08;2.10;;;;;13.70;101142.00;;;;5108015;28;20419;-74
2021/10/17 07:36:51;;;;;;;13.52;2.53;;;;;13.70;101139.00;;;;5108626;28;20058;-75
2021/10/17 07:39:26;;;;;;;12.40;2.00;;;;;13.60;101139.00;;;;5108109;28;20589;-73
2021/10/17 07:41:59;;;;;;;19.47;2.47;;;;;13.60;101147.00;;;;5108023;28;20065;-72
2021/10/17 07:44:28;;;;;;;;;;;;;13.60;101142.00;;;;5109031;28;20040;-72
2021/10/17 07:47:09;;;;;;;13.75;1.90;;;;;13.60;101133.00;;;;5108632;28;20014;-75
2021/10/17 07:49:48;;;;;;;9.82;1.90;;;;;13.50;101150.00;;;;5108277;28;20471;-74
2021/10/17 07:52:21;;;;;;;13.98;1.90;;;;;13.60;101124.00;;;;5107947;28;20050;-74
2021/10/17 07:54:50;;;;;;;12.55;1.95;;;;;13.50;101132.00;;;;5108238;28;20941;-74
2021/10/17 07:57:53;;;;;;;11.70;1.90;;;;;13.50;101153.00;;;;5109073;28;20072;-74
2021/10/17 08:00:30;;;;;;;16.20;2.17;;;;;13.50;101147.00;;;;5107790;28;20048;-73
2021/10/17 08:03:20;;;;;;;14.43;1.95;;;;;13.50;101125.00;;;;5076957;28;20510;-75
2021/10/17 08:06:17;;;;;;;13.60;1.98;;;;;13.50;101149.00;;;;5106065;28;20048;-75
2021/10/17 08:08:48;;;;;;;11.15;2.13;;;;;13.50;101149.00;;;;5090988;28;20518;-74
2021/10/17 08:11:19;;;;;;;13.73;2.13;;;;;13.50;101129.00;;;;5108964;28;20051;-74
2021/10/17 08:13:49;;;;;;;13.27;2.05;;;;;13.40;101135.00;;;;5108186;28;20130;-74
2021/10/17 08:16:25;;;;;;;16.35;2.22;;;;;13.30;101148.00;;;;5107565;28;20067;-72
2021/10/17 08:18:58;;;;;;;11.43;2.30;;;;;13.40;101137.00;;;;5107768;28;20919;-73
2021/10/17 08:21:30;;;;;;;14.48;2.47;;;;;13.30;101122.00;;;;5107465;28;20403;-72
2021/10/17 08:24:10;;;;;;;12.45;1.83;;;;;13.30;101140.00;;;;5107430;28;20071;-74
2021/10/17 08:26:42;;;;;;;;;;;;;13.30;101142.00;;;;5107849;28;20047;-75
2021/10/17 08:29:17;;;;;;;12.15;2.30;;;;;13.30;101125.00;;;;5107322;28;20283;-75
2021/10/17 08:31:47;;;;;;;13.17;1.90;;;;;13.20;101141.00;;;;5106961;28;20510;-74
2021/10/17 08:34:18;;;;;;;16.13;2.30;;;;;13.20;101146.00;;;;5107638;28;20082;-75
2021/10/17 08:36:47;;;;;;;12.55;1.70;;;;;13.20;101144.00;;;;5107627;28;20858;-74
2021/10/17 08:39:54;;;;;;;10.02;1.73;;;;;13.10;101141.00;;;;5091976;28;20058;-74
2021/10/17 08:42:55;;;;;;;9.93;1.63;;;;;13.10;101143.00;;;;5091732;28;20055;-74
2021/10/17 08:45:36;;;;;;;18.27;2.13;;;;;13.10;101122.00;;;;5107031;28;20044;-74
2021/10/17 08:48:09;;;;;;;15.77;1.60;;;;;13.10;101126.00;;;;5107202;28;20567;-75
2021/10/17 08:50:52;;;;;;;14.02;1.70;;;;;13.20;101135.00;;;;5106474;28;20517;-75
2021/10/17 08:53:29;;;;;;;12.25;1.70;;;;;13.20;101149.00;;;;5106886;28;20530;-74
2021/10/17 08:56:07;;;;;;;15.25;1.67;;;;;13.20;101148.00;;;;5106807;28;20044;-75
2021/10/17 08:58:40;;;;;;;14.70;1.80;;;;;13.20;101154.00;;;;5106856;28;20418;-73
2021/10/17 09:01:19;;;;;;;12.25;1.85;;;;;13.20;101169.00;;;;5107281;28;20142;-74
2021/10/17 09:03:58;;;;;;;7.45;1.83;;;;;13.20;101163.00;;;;5106728;28;20598;-75
2021/10/17 09:06:40;;;;;;;12.73;1.85;;;;;13.30;101178.00;;;;5107237;28;20061;-72
2021/10/17 09:09:15;;;;;;;12.80;1.80;;;;;13.30;101175.00;;;;5106051;28;20054;-74
2021/10/17 09:11:57;;;;;;;10.75;1.95;;;;;13.40;101172.00;;;;5106837;28;20085;-72
2021/10/17 09:14:30;;;;;;;23.80;2.42;;;;;13.60;101193.00;;;;5108033;28;20225;-73
2021/10/17 09:17:00;;;;;;;17.83;2.17;;;;;13.70;101187.00;;;;5107689;28;20043;-75
2021/10/17 09:19:32;;;;;;;21.58;2.65;;;;;13.70;101190.00;;;;5108053;28;20055;-73
2021/10/17 09:22:03;;;;;;;10.07;2.10;;;;;13.70;101210.00;;;;5106764;28;20055;-73
2021/10/17 09:24:48;;;;;;;22.83;3.60;;;;;13.80;101186.00;;;;5107395;28;20579;-74
2021/10/17 09:27:23;;;;;;;10.68;2.00;;;;;13.90;101174.00;;;;5107643;28;20119;-75
2021/10/17 09:29:55;;;;;;;24.90;3.25;;;;;13.90;101202.00;;;;5107512;28;20036;-74
2021/10/17 09:32:28;;;;;;;18.67;2.33;;;;;13.90;101178.00;;;;5107590;28;20043;-74
2021/10/17 09:35:04;;;;;;;15.45;2.65;;;;;14.00;101189.00;;;;5107980;28;20039;-74
2021/10/17 09:37:54;;;;;;;17.80;2.83;;;;;14.10;101153.00;;;;5105871;28;20051;-74
2021/10/17 09:40:46;;;;;;;;;;;;;14.20;101176.00;;;;5106367;28;20051;-73
2021/10/17 09:43:32;;;;;;;12.02;2.10;;;;;14.30;101146.00;;;;5106235;28;19924;-73
2021/10/17 09:46:14;;;;;;;18.30;2.63;;;;;14.40;101164.00;;;;5106286;28;20079;-74
2021/10/17 09:48:45;;;;;;;23.35;2.47;;;;;14.50;101159.00;;;;5107440;28;20040;-73
2021/10/17 09:51:30;;;;;;;22.23;2.30;;;;;14.60;101127.00;;;;5107259;28;20051;-73
2021/10/17 09:54:00;;;;;;;17.58;2.13;;;;;14.70;101148.00;;;;5107320;28;20052;-73
2021/10/17 09:56:40;;;;;;;12.75;2.15;;;;;14.70;101164.00;;;;5106771;28;20134;-74
2021/10/17 09:59:12;;;;;;;16.80;2.92;;;;;14.70;101168.00;;;;5107571;28;20126;-75
2021/10/17 10:01:42;;;;;;;;;;;;;14.70;101183.00;;;;5107997;28;20046;-75
2021/10/17 10:04:13;;;;;;;16.50;1.92;;;;;14.70;101173.00;;;;5107237;28;19970;-74
2021/10/17 10:06:45;;;;;;;11.10;2.05;;;;;14.80;101169.00;;;;5089249;28;20051;-73
2021/10/17 10:09:19;;;;;;;12.50;2.20;;;;;15.00;101159.00;;;;5107265;28;20040;-74
2021/10/17 10:11:50;;;;;;;15.75;2.35;;;;;15.10;101169.00;;;;5107019;28;20097;-74
2021/10/17 10:14:20;;;;;;;8.02;2.08;;;;;15.10;101161.00;;;;5106874;28;20039;-72
2021/10/17 10:16:55;;;;;;;24.83;2.95;;;;;15.00;101165.00;;;;5107490;28;20135;-75
2021/10/17 10:19:25;;;;;;;17.48;2.53;;;;;15.10;101163.00;;;;5107206;28;20035;-73
2021/10/17 10:21:55;;;;;;;13.27;2.00;;;;;15.20;101164.00;;;;5106839;28;20084;-74
2021/10/17 10:24:31;;;;;;;12.05;2.35;;;;;15.20;101189.00;;;;5106927;28;20877;-75
2021/10/17 10:27:03;;;;;;;11.50;2.20;;;;;15.20;101194.00;;;;5107477;28;20055;-73
2021/10/17 10:29:34;;;;;;;14.13;1.98;;;;;15.20;101191.00;;;;5107436;28;20039;-75
2021/10/17 10:32:07;;;;;;;14.88;2.47;;;;;15.30;101183.00;;;;5107131;28;20040;-72
2021/10/17 10:34:37;;;;;;;14.37;2.20;;;;;15.80;101169.00;;;;5110588;28;20048;-74
2021/10/17 10:37:34;;;;;;;15.80;2.60;;;;;16.10;101063.00;;;;5111188;28;20047;-76
2021/10/17 10:40:04;;;;;;;18.95;2.78;;;;;17.00;101114.00;;;;5110465;28;20043;-74
2021/10/17 10:42:39;;;;;;;9.85;2.15;;;;;21.70;100878.00;;;;5110813;28;20848;-75
2021/10/17 10:45:32;;;;;;;21.20;2.78;;;;;23.70;100896.00;;;;5110583;28;20513;-74
2021/10/17 10:48:11;;;;;;;10.80;1.65;;;;;22.90;100951.00;;;;5110808;28;20032;-74
2021/10/17 10:50:46;;;;;;;34.25;3.75;;;;;23.10;100921.00;;;;5110881;28;20036;-76
2021/10/17 10:53:47;;;;;;;14.85;2.83;;;;;24.60;100910.00;;;;5111509;28;20038;-72
2021/10/17 10:56:43;;;;;;;14.18;1.90;;;;;23.40;100965.00;;;;5110859;28;20127;-72
2021/10/17 10:59:16;;;;;;;17.92;2.83;;;;;21.00;101121.00;;;;5110776;28;20039;-73
2021/10/17 11:01:58;;;;;;;8.80;1.65;;;;;20.00;100925.00;;;;5110483;28;20046;-73
2021/10/17 11:04:41;;;;;;;10.90;2.50;;;;;21.90;101085.00;;;;5110372;28;20032;-76
2021/10/17 11:07:31;;;;;;;11.10;1.90;;;;;19.70;101077.00;;;;5110759;28;20427;-74
2021/10/17 11:10:22;;;;;;;12.52;2.83;;;;;20.70;101089.00;;;;5110429;28;20044;-70
2021/10/17 11:12:52;;;;;;;13.95;2.30;;;;;19.20;101129.00;;;;5110434;28;20134;-72
2021/10/17 11:15:26;;;;;;;15.73;2.17;;;;;19.30;101007.00;;;;5110462;27;20098;-72
2021/10/17 11:17:58;;;;;;;8.55;1.55;;;;;23.80;100904.00;;;;5110109;28;20077;-74
2021/10/17 11:20:30;;;;;;;5.85;1.50;;;;;20.20;101100.00;;;;5109966;28;20123;-73
2021/10/17 11:23:01;;;;;;;7.90;1.60;;;;;20.80;101027.00;;;;5110003;28;20058;-73
2021/10/17 11:25:31;;;;;;;8.30;1.90;;;;;20.80;101111.00;;;;5110710;27;20075;-75
2021/10/17 11:28:01;;;;;;;10.27;1.83;;;;;20.20;101126.00;;;;5110475;28;20052;-74
2021/10/17 11:30:34;;;;;;;10.43;1.88;;;;;20.00;101131.00;;;;5110409;28;20047;-73
2021/10/17 11:33:17;;;;;;;6.93;1.70;;;;;20.40;101138.00;;;;5109927;28;20058;-75
2021/10/17 11:35:48;;;;;;;7.30;1.63;;;;;20.50;101109.00;;;;5110035;28;20035;-75
2021/10/17 11:38:18;;;;;;;10.82;1.88;;;;;20.60;101108.00;;;;5109504;28;20046;-73
2021/10/17 11:40:48;;;;;;;6.97;1.52;;;;;20.80;101084.00;;;;5109754;28;20039;-73
2021/10/17 11:43:17;;;;;;;8.77;1.55;;;;;20.10;101129.00;;;;5109206;28;20039;-74
2021/10/17 11:45:47;;;;;;;7.72;1.60;;;;;19.80;101130.00;;;;5107654;28;20052;-72
2021/10/17 11:48:20;;;;;;;8.40;1.88;;;;;20.00;101135.00;;;;5109855;28;20055;-74
2021/10/17 11:50:50;;;;;;;9.85;1.60;;;;;19.60;101122.00;;;;5109857;28;20494;-72
2021/10/17 11:53:21;;;;;;;10.10;1.83;;;;;19.80;101175.00;;;;5109723;28;20456;-74
2021/10/17 11:55:52;;;;;;;10.23;2.13;;;;;19.90;101090.00;;;;5109045;28;20784;-71
2021/10/17 11:58:23;;;;;;;9.10;1.92;;;;;20.60;101059.00;;;;5109278;28;20044;-73
2021/10/17 12:00:54;;;;;;;9.17;1.60;;;;;20.10;101074.00;;;;5109615;28;20039;-74
2021/10/17 12:03:26;;;;;;;8.13;1.85;;;;;20.30;101035.00;;;;5107964;28;20130;-73
2021/10/17 12:05:56;;;;;;;10.23;1.52;;;;;21.00;101116.00;;;;5109040;28;20471;-74
2021/10/17 12:08:34;;;;;;;9.93;1.63;;;;;20.80;101115.00;;;;5108979;28;20495;-72
2021/10/17 12:11:05;;;;;;;11.55;1.85;;;;;20.50;101106.00;;;;5108582;28;20044;-74
2021/10/17 12:13:57;;;;;;;8.23;1.45;;;;;20.70;101129.00;;;;5107508;28;20054;-73
2021/10/17 12:16:31;;;;;;;9.15;2.15;;;;;21.00;101089.00;;;;5109665;28;20044;-73
2021/10/17 12:19:05;;;;;;;23.25;2.38;;;;;20.90;101141.00;;;;5108570;28;20535;-73
2021/10/17 12:21:46;;;;;;;9.63;1.65;;;;;20.00;101154.00;;;;5108794;28;20763;-74
2021/10/17 12:24:21;;;;;;;4.88;1.40;;;;;19.10;101149.00;;;;5106834;28;20063;-72
2021/10/17 12:27:05;;;;;;;10.40;2.10;;;;;19.40;101150.00;;;;5106788;28;20575;-75
2021/10/17 12:29:35;;;;;;;14.52;2.10;;;;;19.50;101153.00;;;;5107327;28;20040;-74